createdAt,value
2019-04-26T00:02:23.205Z,"    0"
2019-04-26T00:07:19.140Z,"    0"
2019-04-26T00:12:14.650Z,"    0"
2019-04-26T00:17:11.540Z,"    0"
2019-04-26T00:22:07.235Z,"    0"
2019-04-26T00:27:03.167Z,"    0"
2019-04-26T00:31:58.977Z,"    0"
2019-04-26T00:36:54.583Z,"    0"
2019-04-26T00:41:51.719Z,"    0"
2019-04-26T00:46:48.409Z,"    0"
2019-04-26T00:51:44.902Z,"    0"
2019-04-26T00:56:40.488Z,"    0"
2019-04-26T01:01:36.607Z,"    0"
2019-04-26T01:06:33.487Z,"    0"
2019-04-26T01:11:29.288Z,"    0"
2019-04-26T01:16:25.137Z,"    0"
2019-04-26T01:21:20.829Z,"    0"
2019-04-26T01:26:17.854Z,"    0"
2019-04-26T01:31:13.631Z,"    0"
2019-04-26T01:36:13.191Z,"    0"
2019-04-26T01:41:08.375Z,"    0"
2019-04-26T01:46:04.291Z,"    0"
2019-04-26T01:51:00.192Z,"    0"
2019-04-26T01:55:57.280Z,"    0"
2019-04-26T02:00:53.754Z,"    0"
2019-04-26T02:05:50.981Z,"    0"
2019-04-26T02:10:47.351Z,"    0"
2019-04-26T02:15:43.009Z,"    0"
2019-04-26T02:20:38.991Z,"    0"
2019-04-26T02:25:34.989Z,"    0"
2019-04-26T02:30:32.522Z,"    0"
2019-04-26T02:35:30.297Z,"    0"
2019-04-26T02:40:28.118Z,"    0"
2019-04-26T02:45:26.910Z,"    0"
2019-04-26T02:50:23.904Z,"    0"
2019-04-26T02:55:19.806Z,"    0"
2019-04-26T03:00:15.938Z,"    0"
2019-04-26T03:05:11.737Z,"    0"
2019-04-26T03:10:07.668Z,"    0"
2019-04-26T03:15:13.337Z,"    0"
2019-04-26T03:20:03.184Z,"    0"
2019-04-26T03:24:59.325Z,"    0"
2019-04-26T03:30:17.378Z,"    0"
2019-04-26T03:34:55.366Z,"    0"
2019-04-26T03:39:51.469Z,"    4"
2019-04-26T03:44:47.136Z,"    4"
2019-04-26T03:49:44.200Z,"    0"
2019-04-26T03:54:41.108Z,"    4"
2019-04-26T03:59:38.351Z,"    8"
2019-04-26T04:04:37.058Z,"    8"
2019-04-26T04:09:32.710Z,"   28"
2019-04-26T04:14:28.847Z,"   40"
2019-04-26T04:19:24.431Z,"   64"
2019-04-26T04:24:20.490Z,"   92"
2019-04-26T04:29:17.301Z,"   76"
2019-04-26T04:34:12.963Z,"   72"
2019-04-26T04:39:12.886Z,"  120"
2019-04-26T04:44:07.974Z,"  244"
2019-04-26T04:49:03.686Z,"  468"
2019-04-26T04:54:00.575Z,"  952"
2019-04-26T04:58:56.425Z," 1260"
2019-04-26T05:03:53.168Z,"  936"
2019-04-26T05:08:51.171Z,"  876"
2019-04-26T05:13:47.860Z,"  812"
2019-04-26T05:18:44.140Z,"  732"
2019-04-26T05:23:40.902Z," 1164"
2019-04-26T05:28:38.012Z," 1064"
2019-04-26T05:33:33.322Z," 1132"
2019-04-26T05:38:30.524Z," 1308"
2019-04-26T05:43:26.044Z," 1292"
2019-04-26T05:48:21.845Z," 1480"
2019-04-26T05:53:18.352Z," 1080"
2019-04-26T05:58:14.188Z," 1132"
2019-04-26T06:03:09.972Z," 1056"
2019-04-26T06:08:05.789Z," 1260"
2019-04-26T06:13:01.563Z," 1128"
2019-04-26T06:17:58.147Z," 1340"
2019-04-26T06:22:56.681Z," 1848"
2019-04-26T06:27:53.522Z," 1696"
2019-04-26T06:32:56.421Z," 1336"
2019-04-26T06:37:49.107Z," 1640"
2019-04-26T06:42:45.055Z," 1576"
2019-04-26T06:47:40.615Z," 1216"
2019-04-26T06:52:37.460Z," 1264"
2019-04-26T06:57:34.222Z," 1536"
2019-04-26T07:02:30.690Z," 1908"
2019-04-26T07:07:26.331Z," 2392"
2019-04-26T07:12:21.976Z," 3764"
2019-04-26T07:17:18.003Z," 3548"
2019-04-26T07:22:13.807Z," 2436"
2019-04-26T07:27:10.953Z," 2588"
2019-04-26T07:32:07.338Z," 2992"
2019-04-26T07:37:02.991Z," 3220"
2019-04-26T07:42:01.580Z," 3036"
2019-04-26T07:46:56.700Z," 3216"
2019-04-26T07:51:52.661Z," 4036"
2019-04-26T07:56:49.148Z," 4384"
2019-04-26T08:01:45.014Z," 5072"
2019-04-26T08:06:41.097Z," 3752"
2019-04-26T08:11:37.982Z," 4988"
2019-04-26T08:16:35.124Z," 4992"
2019-04-26T08:21:32.239Z," 5660"
2019-04-26T08:26:27.901Z," 3872"
2019-04-26T08:31:25.579Z," 3284"
2019-04-26T08:36:23.200Z," 4888"
2019-04-26T08:41:22.044Z," 4640"
2019-04-26T08:46:18.068Z," 2832"
2019-04-26T08:51:20.378Z," 4188"
2019-04-26T08:56:15.257Z," 4024"
2019-04-26T09:01:11.468Z," 4276"
2019-04-26T09:06:09.303Z," 4732"
2019-04-26T09:11:05.006Z," 7048"
2019-04-26T09:16:02.012Z," 9280"
2019-04-26T09:20:57.963Z,11140
2019-04-26T09:25:59.302Z," 8244"
2019-04-26T09:30:55.086Z," 8684"
2019-04-26T09:35:51.909Z," 6424"
2019-04-26T09:40:47.645Z," 7816"
2019-04-26T09:45:43.634Z," 7328"
2019-04-26T09:50:39.780Z," 7128"
2019-04-26T09:55:36.121Z," 8420"
2019-04-26T10:00:32.110Z," 9344"
2019-04-26T10:05:29.194Z," 9412"
2019-04-26T10:10:25.062Z," 9200"
2019-04-26T10:15:22.546Z,10180
2019-04-26T10:20:20.715Z," 9076"
2019-04-26T10:25:17.123Z,12964
2019-04-26T10:30:12.984Z,11020
2019-04-26T10:35:09.364Z,11340
2019-04-26T10:40:05.241Z," 8512"
2019-04-26T10:45:00.961Z," 9548"
2019-04-26T10:49:58.237Z,10660
2019-04-26T10:54:54.805Z," 8360"
2019-04-26T10:59:50.431Z," 7836"
2019-04-26T11:04:46.214Z," 7664"
2019-04-26T11:09:41.883Z," 6532"
2019-04-26T11:14:37.513Z," 7328"
2019-04-26T11:19:35.444Z," 7332"
2019-04-26T11:24:31.589Z," 8924"
2019-04-26T11:29:28.724Z," 7484"
2019-04-26T11:34:25.516Z," 5896"
2019-04-26T11:39:20.931Z," 5532"
2019-04-26T11:44:16.900Z," 7552"
2019-04-26T11:49:12.612Z,11796
2019-04-26T11:54:09.752Z,13576
2019-04-26T11:59:06.749Z,13920
2019-04-26T12:04:04.039Z,24320
2019-04-26T12:09:00.276Z,19456
2019-04-26T12:13:59.553Z,16544
2019-04-26T12:18:55.431Z,11964
2019-04-26T12:23:54.928Z,11100
2019-04-26T12:28:50.218Z,11160
2019-04-26T12:33:45.971Z,10268
2019-04-26T12:38:42.759Z," 9508"
2019-04-26T12:43:39.011Z," 9348"
2019-04-26T12:48:34.680Z," 9128"
2019-04-26T12:53:31.448Z," 8060"
2019-04-26T12:58:28.990Z," 6208"
2019-04-26T13:03:28.991Z," 6484"
2019-04-26T13:08:23.915Z," 7152"
2019-04-26T13:13:21.012Z," 8236"
2019-04-26T13:18:17.608Z," 7980"
2019-04-26T13:23:13.759Z," 8956"
2019-04-26T13:28:10.858Z,10724
2019-04-26T13:33:06.599Z,10688
2019-04-26T13:38:05.158Z,10192
2019-04-26T13:43:02.265Z," 9328"
2019-04-26T13:47:57.911Z," 6488"
2019-04-26T13:52:54.092Z," 7740"
2019-04-26T13:57:50.136Z," 9948"
2019-04-26T14:02:46.992Z," 9092"
2019-04-26T14:07:42.349Z,10424
2019-04-26T14:12:39.499Z,12568
2019-04-26T14:17:35.930Z," 7196"
2019-04-26T14:22:32.219Z," 8432"
2019-04-26T14:27:27.715Z," 7464"
2019-04-26T14:32:24.292Z," 7180"
2019-04-26T14:37:20.607Z," 7888"
2019-04-26T14:42:17.319Z," 9432"
2019-04-26T14:47:17.482Z," 9612"
2019-04-26T14:52:12.736Z," 8384"
2019-04-26T14:57:16.928Z," 9272"
2019-04-26T15:02:10.440Z," 7132"
2019-04-26T15:07:07.055Z," 6976"
2019-04-26T15:12:03.533Z," 6288"
2019-04-26T15:16:58.987Z," 5948"
2019-04-26T15:21:54.924Z," 5844"
2019-04-26T15:26:51.650Z," 5292"
2019-04-26T15:31:47.342Z," 5224"
2019-04-26T15:36:43.423Z," 5716"
2019-04-26T15:41:46.777Z," 6000"
2019-04-26T15:46:42.543Z," 8320"
2019-04-26T15:51:42.671Z," 6976"
2019-04-26T15:56:38.395Z," 5468"
2019-04-26T16:01:34.331Z," 5460"
2019-04-26T16:06:29.921Z," 5544"
2019-04-26T16:11:26.272Z," 5000"
2019-04-26T16:16:27.853Z," 4468"
2019-04-26T16:21:22.655Z," 3608"
2019-04-26T16:26:18.141Z," 2864"
2019-04-26T16:31:13.954Z," 2352"
2019-04-26T16:36:09.682Z," 2732"
2019-04-26T16:41:06.056Z," 3248"
2019-04-26T16:46:02.912Z," 2820"
2019-04-26T16:51:01.018Z," 2344"
2019-04-26T16:55:58.358Z," 2624"
2019-04-26T17:00:57.198Z," 3132"
2019-04-26T17:06:04.741Z," 3724"
2019-04-26T17:10:56.430Z," 3460"
2019-04-26T17:15:57.982Z," 4024"
2019-04-26T17:20:51.039Z," 3416"
2019-04-26T17:25:46.714Z," 3284"
2019-04-26T17:30:44.615Z," 3532"
2019-04-26T17:35:42.054Z," 2660"
2019-04-26T17:40:38.074Z," 2632"
2019-04-26T17:45:36.235Z," 1880"
2019-04-26T17:50:35.363Z," 1632"
2019-04-26T17:55:33.671Z," 1772"
2019-04-26T18:00:44.662Z," 1456"
2019-04-26T18:05:45.108Z," 1268"
2019-04-26T18:10:30.581Z,"  868"
2019-04-26T18:15:25.777Z,"  648"
2019-04-26T18:20:23.407Z,"  684"
2019-04-26T18:25:18.891Z,"  552"
2019-04-26T18:30:14.705Z,"  380"
2019-04-26T18:35:15.287Z,"  280"
2019-04-26T18:40:09.435Z,"  184"
2019-04-26T18:45:06.660Z,"  120"
2019-04-26T18:50:03.336Z,"   64"
2019-04-26T18:54:58.533Z,"   32"
2019-04-26T18:59:55.355Z,"   20"
2019-04-26T19:04:50.665Z,"    8"
2019-04-26T19:09:58.789Z,"    4"
2019-04-26T19:14:49.870Z,"    0"
2019-04-26T19:19:45.204Z,"    0"
2019-04-26T19:24:42.301Z,"    0"
2019-04-26T19:29:37.485Z,"    0"
2019-04-26T19:34:33.213Z,"    0"
2019-04-26T19:39:33.300Z,"    0"
2019-04-26T19:44:27.921Z,"    0"
2019-04-26T19:49:25.918Z,"    0"
2019-04-26T19:54:27.720Z,"    0"
2019-04-26T19:59:23.420Z,"    0"
2019-04-26T20:04:24.798Z,"    0"
2019-04-26T20:09:22.847Z,"    0"
2019-04-26T20:14:19.637Z,"    0"
2019-04-26T20:19:17.880Z,"    0"
2019-04-26T20:24:18.331Z,"    0"
2019-04-26T20:29:14.965Z,"    0"
2019-04-26T20:34:14.465Z,"    0"
2019-04-26T20:39:12.483Z,"    0"
2019-04-26T20:44:10.083Z,"    0"
2019-04-26T20:49:09.001Z,"    0"
2019-04-26T20:54:05.007Z,"    0"
2019-04-26T20:59:02.550Z,"    0"
2019-04-26T21:03:59.225Z,"    0"
2019-04-26T21:08:59.137Z,"    0"
2019-04-26T21:13:54.306Z,"    0"
2019-04-26T21:18:50.219Z,"    0"
2019-04-26T21:23:45.884Z,"    0"
2019-04-26T21:28:42.618Z,"    0"
2019-04-26T21:33:39.871Z,"    0"
2019-04-26T21:38:36.350Z,"    0"
2019-04-26T21:43:34.704Z,"    0"
2019-04-26T21:48:30.927Z,"    0"
2019-04-26T21:53:29.729Z,"    0"
2019-04-26T21:58:25.141Z,"    0"
2019-04-26T22:03:20.921Z,"    0"
2019-04-26T22:08:17.449Z,"    0"
2019-04-26T22:13:15.380Z,"    0"
2019-04-26T22:18:14.870Z,"    0"
2019-04-26T22:23:16.280Z,"    0"
2019-04-26T22:28:10.670Z,"    0"
2019-04-26T22:33:07.444Z,"    0"
2019-04-26T22:38:03.990Z,"    0"
2019-04-26T22:42:59.560Z,"    0"
2019-04-26T22:47:55.406Z,"    0"
2019-04-26T22:52:52.460Z,"    0"
2019-04-26T22:57:49.586Z,"    0"
2019-04-26T23:02:46.870Z,"    0"
2019-04-26T23:07:42.430Z,"    0"
2019-04-26T23:12:38.159Z,"    0"
2019-04-26T23:17:34.974Z,"    0"
2019-04-26T23:22:33.665Z,"    0"
2019-04-26T23:27:29.076Z,"    0"
2019-04-26T23:32:24.829Z,"    0"
2019-04-26T23:37:25.886Z,"    0"
2019-04-26T23:42:20.750Z,"    0"
2019-04-26T23:47:22.378Z,"    0"
2019-04-26T23:52:18.651Z,"    0"
2019-04-26T23:57:13.878Z,"    0"
